Αρχική σελίδα
METAR-TAF:

METAR-TAF

Αεροδρόμια :

Chanute, Κάνσας, Ηνωμένες Πολιτείες Αμερικής

γεωγραφικό πλάτος: 37-40-13N, γεωγραφικό μήκος: 095-29-03W, υψόμετρο: 305 μ

Παρών καιρός

Η αναφορά έγινε 34 λεπτά πριν, στις 07:52 UTC
Άνεμος 3 kt από Ν/NA
Θερμοκρασία 21°C
Υγρασία 94%
Πίεση 1010 hPa
Ορατότητα: 16.1 χλμ
Καθαρός ουρανός

METAR: KCNU 200752Z AUTO 15003KT 10SM CLR 21/20 A2983 RMK AO2 SLP087 T02110200

Χρόνος: 03:26 (08:26 UTC)

Πρόγνωση Καιρού

Η αναφορά έγινε 3 ώρες και 4 λεπτά πριν, στις 05:22 UTC
Η πρόγνωση ισχύει από τις 20 στις 06 UTC έως τις 21 στις 06 UTC
Άνεμος 5 kt από Α
Ορατότητα: 10 χλμ
Αρκετά νέφη σε ύψος 10000 πόδια, Σωρειτομελανίτες.
καταιγίδα στην περιοχή
Από 20 στις 1200 UTC
Άνεμος 8 kt από Α/BA
Ορατότητα: 10 χλμ
Διάσπαρτα νέφη σε ύψος 10000 πόδια

TAF: KCNU 200522Z 2006/2106 09005KT P6SM VCTS BKN100CB FM201200 07008KT P6SM SCT100

Μετεωρολογικές αναφορές και προγνώσεις για περισσότερα από 4000 αεροδρόμια (δελτία METAR και TAF).

Οι διαθέσιμοι σταθμοί απεικονίζονται στο χάρτη με κίτρινες και κόκκινες κουκκίδες.

Μετακινήστε το ποντίκι πάνω από τις κουκκίδες για να δείτε το όνομα του σταθμού.

Στη συνέχεια, κάντε κλικ για να δείτε τις μετεωρολογικές αναφορές και τις προγνώσεις καιρού.

Για να αλλάξετε το χάρτη: κάντε κλικ στα πράσινα κουμπιά με τον μαύρο σταυρό για να ζουμάρετε, στο πράσινο κουμπί με την παύλα για να αφαιρέσετε το ζουμ ή στα πράσινα βέλη για να αντιπαραβάλλετε χάρτες.


METAR-TAF: